sensor_id;sensor_type;location;lat;lon;timestamp;temperature;humidity
42095;DHT22;27753;55.724;37.612;2023-05-17T00:00:00;14.70;63.30
42095;DHT22;27753;55.724;37.612;2023-05-17T00:02:26;14.60;63.60
42095;DHT22;27753;55.724;37.612;2023-05-17T00:04:51;14.60;63.60
42095;DHT22;27753;55.724;37.612;2023-05-17T00:07:18;14.60;64.00
42095;DHT22;27753;55.724;37.612;2023-05-17T00:09:43;14.60;64.00
42095;DHT22;27753;55.724;37.612;2023-05-17T00:12:09;14.50;64.20
42095;DHT22;27753;55.724;37.612;2023-05-17T00:14:35;14.40;64.50
42095;DHT22;27753;55.724;37.612;2023-05-17T00:17:01;14.40;64.80
42095;DHT22;27753;55.724;37.612;2023-05-17T00:19:27;14.40;65.00
42095;DHT22;27753;55.724;37.612;2023-05-17T00:21:53;14.30;65.20
42095;DHT22;27753;55.724;37.612;2023-05-17T00:24:18;14.30;65.50
42095;DHT22;27753;55.724;37.612;2023-05-17T00:26:44;14.30;65.80
42095;DHT22;27753;55.724;37.612;2023-05-17T00:29:10;14.20;66.00
42095;DHT22;27753;55.724;37.612;2023-05-17T00:31:36;14.20;65.70
42095;DHT22;27753;55.724;37.612;2023-05-17T00:34:02;14.20;66.30
42095;DHT22;27753;55.724;37.612;2023-05-17T00:36:28;14.20;66.60
42095;DHT22;27753;55.724;37.612;2023-05-17T00:38:54;14.20;66.70
42095;DHT22;27753;55.724;37.612;2023-05-17T00:41:19;14.20;66.60
42095;DHT22;27753;55.724;37.612;2023-05-17T00:43:45;14.10;66.80
42095;DHT22;27753;55.724;37.612;2023-05-17T00:46:11;14.10;67.00
42095;DHT22;27753;55.724;37.612;2023-05-17T00:48:37;14.10;67.10
42095;DHT22;27753;55.724;37.612;2023-05-17T00:51:03;14.10;67.20
42095;DHT22;27753;55.724;37.612;2023-05-17T00:53:29;14.10;67.40
42095;DHT22;27753;55.724;37.612;2023-05-17T00:55:55;14.10;67.50
42095;DHT22;27753;55.724;37.612;2023-05-17T00:58:22;14.10;67.10
42095;DHT22;27753;55.724;37.612;2023-05-17T01:00:49;14.10;67.40
42095;DHT22;27753;55.724;37.612;2023-05-17T01:03:15;14.10;67.60
42095;DHT22;27753;55.724;37.612;2023-05-17T01:05:41;14.00;66.80
42095;DHT22;27753;55.724;37.612;2023-05-17T01:08:07;14.00;67.30
42095;DHT22;27753;55.724;37.612;2023-05-17T01:10:48;14.00;67.70
42095;DHT22;27753;55.724;37.612;2023-05-17T01:13:23;14.00;68.60
42095;DHT22;27753;55.724;37.612;2023-05-17T01:16:30;14.00;68.80
42095;DHT22;27753;55.724;37.612;2023-05-17T01:19:06;13.90;68.10
42095;DHT22;27753;55.724;37.612;2023-05-17T01:24:58;13.90;68.60
42095;DHT22;27753;55.724;37.612;2023-05-17T01:27:26;13.90;68.60
42095;DHT22;27753;55.724;37.612;2023-05-17T01:29:55;13.80;68.40
42095;DHT22;27753;55.724;37.612;2023-05-17T01:32:22;13.80;68.80
42095;DHT22;27753;55.724;37.612;2023-05-17T01:34:48;13.80;69.10
42095;DHT22;27753;55.724;37.612;2023-05-17T01:37:14;13.80;69.10
42095;DHT22;27753;55.724;37.612;2023-05-17T01:39:41;13.90;69.40
42095;DHT22;27753;55.724;37.612;2023-05-17T01:42:16;13.80;69.40
42095;DHT22;27753;55.724;37.612;2023-05-17T01:44:49;13.80;69.90
42095;DHT22;27753;55.724;37.612;2023-05-17T01:47:28;13.80;70.00
42095;DHT22;27753;55.724;37.612;2023-05-17T01:49:56;13.80;70.20
42095;DHT22;27753;55.724;37.612;2023-05-17T01:52:28;13.80;70.50
42095;DHT22;27753;55.724;37.612;2023-05-17T01:55:31;13.80;70.70
42095;DHT22;27753;55.724;37.612;2023-05-17T01:58:00;13.90;70.70
42095;DHT22;27753;55.724;37.612;2023-05-17T02:00:30;13.90;70.70
42095;DHT22;27753;55.724;37.612;2023-05-17T02:02:56;13.90;70.50
42095;DHT22;27753;55.724;37.612;2023-05-17T02:05:22;14.00;70.40
42095;DHT22;27753;55.724;37.612;2023-05-17T02:07:48;14.00;70.10
42095;DHT22;27753;55.724;37.612;2023-05-17T02:10:13;14.00;70.20
42095;DHT22;27753;55.724;37.612;2023-05-17T02:12:39;14.00;69.50
42095;DHT22;27753;55.724;37.612;2023-05-17T02:15:06;14.10;69.80
42095;DHT22;27753;55.724;37.612;2023-05-17T02:17:34;14.10;69.70
42095;DHT22;27753;55.724;37.612;2023-05-17T02:19:59;14.10;69.60
42095;DHT22;27753;55.724;37.612;2023-05-17T02:22:25;14.20;69.70
42095;DHT22;27753;55.724;37.612;2023-05-17T02:24:51;14.20;69.60
42095;DHT22;27753;55.724;37.612;2023-05-17T02:27:17;14.30;69.10
42095;DHT22;27753;55.724;37.612;2023-05-17T02:29:43;14.30;69.30
42095;DHT22;27753;55.724;37.612;2023-05-17T02:32:08;14.30;69.40
42095;DHT22;27753;55.724;37.612;2023-05-17T02:34:35;14.40;69.40
42095;DHT22;27753;55.724;37.612;2023-05-17T02:37:01;14.40;68.70
42095;DHT22;27753;55.724;37.612;2023-05-17T02:39:27;14.50;68.40
42095;DHT22;27753;55.724;37.612;2023-05-17T02:41:53;14.60;68.20
42095;DHT22;27753;55.724;37.612;2023-05-17T02:44:18;14.60;68.10
42095;DHT22;27753;55.724;37.612;2023-05-17T02:46:44;14.70;68.10
42095;DHT22;27753;55.724;37.612;2023-05-17T02:49:10;14.80;67.70
42095;DHT22;27753;55.724;37.612;2023-05-17T02:51:36;14.90;67.20
42095;DHT22;27753;55.724;37.612;2023-05-17T02:54:02;15.00;67.10
42095;DHT22;27753;55.724;37.612;2023-05-17T02:56:27;15.10;66.70
42095;DHT22;27753;55.724;37.612;2023-05-17T02:58:53;15.10;66.50
42095;DHT22;27753;55.724;37.612;2023-05-17T03:01:22;15.20;66.40
42095;DHT22;27753;55.724;37.612;2023-05-17T03:03:48;15.20;66.50
42095;DHT22;27753;55.724;37.612;2023-05-17T03:06:13;15.20;66.10
42095;DHT22;27753;55.724;37.612;2023-05-17T03:08:39;15.30;65.80
42095;DHT22;27753;55.724;37.612;2023-05-17T03:11:06;15.30;65.80
42095;DHT22;27753;55.724;37.612;2023-05-17T03:13:32;15.40;65.70
42095;DHT22;27753;55.724;37.612;2023-05-17T03:15:58;15.50;65.60
42095;DHT22;27753;55.724;37.612;2023-05-17T03:18:24;15.60;65.30
42095;DHT22;27753;55.724;37.612;2023-05-17T03:20:50;15.60;65.30
42095;DHT22;27753;55.724;37.612;2023-05-17T03:23:15;15.60;64.90
42095;DHT22;27753;55.724;37.612;2023-05-17T03:25:41;15.70;65.00
42095;DHT22;27753;55.724;37.612;2023-05-17T03:28:07;15.80;65.10
42095;DHT22;27753;55.724;37.612;2023-05-17T03:30:33;15.90;64.80
42095;DHT22;27753;55.724;37.612;2023-05-17T03:32:59;16.00;64.90
42095;DHT22;27753;55.724;37.612;2023-05-17T03:35:25;16.10;64.20
42095;DHT22;27753;55.724;37.612;2023-05-17T03:37:51;16.10;64.00
42095;DHT22;27753;55.724;37.612;2023-05-17T03:40:17;16.20;63.50
42095;DHT22;27753;55.724;37.612;2023-05-17T03:42:43;16.30;63.60
42095;DHT22;27753;55.724;37.612;2023-05-17T03:45:09;16.40;63.40
42095;DHT22;27753;55.724;37.612;2023-05-17T03:47:35;16.50;63.30
42095;DHT22;27753;55.724;37.612;2023-05-17T03:50:01;16.50;62.80
42095;DHT22;27753;55.724;37.612;2023-05-17T03:52:26;16.60;62.60
42095;DHT22;27753;55.724;37.612;2023-05-17T03:54:52;16.60;62.70
42095;DHT22;27753;55.724;37.612;2023-05-17T03:57:19;16.60;62.40
42095;DHT22;27753;55.724;37.612;2023-05-17T03:59:45;16.70;61.80
42095;DHT22;27753;55.724;37.612;2023-05-17T04:02:13;16.70;62.00
42095;DHT22;27753;55.724;37.612;2023-05-17T04:04:39;16.70;61.60
42095;DHT22;27753;55.724;37.612;2023-05-17T04:07:05;16.80;61.70
42095;DHT22;27753;55.724;37.612;2023-05-17T04:09:31;16.90;62.10
42095;DHT22;27753;55.724;37.612;2023-05-17T04:11:59;17.00;61.40
42095;DHT22;27753;55.724;37.612;2023-05-17T04:14:25;17.00;60.70
42095;DHT22;27753;55.724;37.612;2023-05-17T04:16:51;17.10;60.90
42095;DHT22;27753;55.724;37.612;2023-05-17T04:19:18;17.10;60.80
42095;DHT22;27753;55.724;37.612;2023-05-17T04:21:43;17.10;61.10
42095;DHT22;27753;55.724;37.612;2023-05-17T04:24:10;17.10;60.80
42095;DHT22;27753;55.724;37.612;2023-05-17T04:26:36;17.20;60.40
42095;DHT22;27753;55.724;37.612;2023-05-17T04:29:02;17.30;60.80
42095;DHT22;27753;55.724;37.612;2023-05-17T04:31:27;17.40;60.00
42095;DHT22;27753;55.724;37.612;2023-05-17T04:33:53;17.50;60.00
42095;DHT22;27753;55.724;37.612;2023-05-17T04:36:19;17.60;60.00
42095;DHT22;27753;55.724;37.612;2023-05-17T04:38:45;17.70;59.70
42095;DHT22;27753;55.724;37.612;2023-05-17T04:41:11;17.70;59.70
42095;DHT22;27753;55.724;37.612;2023-05-17T04:43:40;17.80;58.60
42095;DHT22;27753;55.724;37.612;2023-05-17T04:46:06;17.90;59.10
42095;DHT22;27753;55.724;37.612;2023-05-17T04:48:33;18.00;58.50
42095;DHT22;27753;55.724;37.612;2023-05-17T04:51:00;18.00;57.40
42095;DHT22;27753;55.724;37.612;2023-05-17T04:53:27;18.10;57.30
42095;DHT22;27753;55.724;37.612;2023-05-17T04:55:52;18.30;57.20
42095;DHT22;27753;55.724;37.612;2023-05-17T04:58:18;19.00;56.70
42095;DHT22;27753;55.724;37.612;2023-05-17T05:00:45;19.90;54.60
42095;DHT22;27753;55.724;37.612;2023-05-17T05:03:10;20.60;52.30
42095;DHT22;27753;55.724;37.612;2023-05-17T05:05:36;21.30;50.80
42095;DHT22;27753;55.724;37.612;2023-05-17T05:08:02;22.20;49.50
42095;DHT22;27753;55.724;37.612;2023-05-17T05:10:28;22.90;47.30
42095;DHT22;27753;55.724;37.612;2023-05-17T05:12:54;23.80;46.50
42095;DHT22;27753;55.724;37.612;2023-05-17T05:15:20;24.50;45.20
42095;DHT22;27753;55.724;37.612;2023-05-17T05:17:47;25.10;43.40
42095;DHT22;27753;55.724;37.612;2023-05-17T05:20:13;25.50;43.10
42095;DHT22;27753;55.724;37.612;2023-05-17T05:22:38;26.30;42.90
42095;DHT22;27753;55.724;37.612;2023-05-17T05:25:05;27.40;41.40
42095;DHT22;27753;55.724;37.612;2023-05-17T05:27:31;28.00;39.00
42095;DHT22;27753;55.724;37.612;2023-05-17T05:29:56;27.60;39.00
42095;DHT22;27753;55.724;37.612;2023-05-17T05:32:22;27.70;39.30
42095;DHT22;27753;55.724;37.612;2023-05-17T05:34:48;28.50;39.20
42095;DHT22;27753;55.724;37.612;2023-05-17T05:37:14;29.50;38.10
42095;DHT22;27753;55.724;37.612;2023-05-17T05:39:40;29.70;36.70
42095;DHT22;27753;55.724;37.612;2023-05-17T05:42:06;29.70;36.90
42095;DHT22;27753;55.724;37.612;2023-05-17T05:44:32;30.00;36.50
42095;DHT22;27753;55.724;37.612;2023-05-17T05:46:58;30.00;35.70
42095;DHT22;27753;55.724;37.612;2023-05-17T05:49:24;30.10;35.90
42095;DHT22;27753;55.724;37.612;2023-05-17T05:51:50;30.90;35.60
42095;DHT22;27753;55.724;37.612;2023-05-17T05:54:16;32.20;35.10
42095;DHT22;27753;55.724;37.612;2023-05-17T05:56:41;33.30;34.00
42095;DHT22;27753;55.724;37.612;2023-05-17T05:59:07;34.40;33.20
42095;DHT22;27753;55.724;37.612;2023-05-17T06:01:33;33.60;31.40
42095;DHT22;27753;55.724;37.612;2023-05-17T06:03:59;32.20;33.00
42095;DHT22;27753;55.724;37.612;2023-05-17T06:06:25;32.60;33.60
42095;DHT22;27753;55.724;37.612;2023-05-17T06:08:51;33.90;33.10
42095;DHT22;27753;55.724;37.612;2023-05-17T06:11:17;33.90;31.60
42095;DHT22;27753;55.724;37.612;2023-05-17T06:13:45;33.50;32.10
42095;DHT22;27753;55.724;37.612;2023-05-17T06:16:11;33.60;32.00
42095;DHT22;27753;55.724;37.612;2023-05-17T06:18:40;34.40;31.70
42095;DHT22;27753;55.724;37.612;2023-05-17T06:21:06;34.80;31.00
42095;DHT22;27753;55.724;37.612;2023-05-17T06:23:32;35.80;30.60
42095;DHT22;27753;55.724;37.612;2023-05-17T06:25:58;35.00;29.50
42095;DHT22;27753;55.724;37.612;2023-05-17T06:28:24;33.80;30.20
42095;DHT22;27753;55.724;37.612;2023-05-17T06:30:50;33.00;31.50
42095;DHT22;27753;55.724;37.612;2023-05-17T06:33:16;34.00;31.10
42095;DHT22;27753;55.724;37.612;2023-05-17T06:35:42;34.70;30.70
42095;DHT22;27753;55.724;37.612;2023-05-17T06:38:08;35.30;30.00
42095;DHT22;27753;55.724;37.612;2023-05-17T06:40:34;35.30;29.40
42095;DHT22;27753;55.724;37.612;2023-05-17T06:43:00;34.40;29.80
42095;DHT22;27753;55.724;37.612;2023-05-17T06:45:26;33.80;30.20
42095;DHT22;27753;55.724;37.612;2023-05-17T06:47:52;33.30;30.50
42095;DHT22;27753;55.724;37.612;2023-05-17T06:50:18;33.30;30.70
42095;DHT22;27753;55.724;37.612;2023-05-17T06:52:44;33.50;30.40
42095;DHT22;27753;55.724;37.612;2023-05-17T06:55:11;33.90;30.00
42095;DHT22;27753;55.724;37.612;2023-05-17T06:57:36;33.70;30.80
42095;DHT22;27753;55.724;37.612;2023-05-17T07:00:03;34.80;30.10
42095;DHT22;27753;55.724;37.612;2023-05-17T07:02:34;36.10;34.00
42095;DHT22;27753;55.724;37.612;2023-05-17T07:05:00;36.80;28.90
42095;DHT22;27753;55.724;37.612;2023-05-17T07:07:26;37.30;28.40
42095;DHT22;27753;55.724;37.612;2023-05-17T07:09:52;37.60;28.40
42095;DHT22;27753;55.724;37.612;2023-05-17T07:12:18;36.60;28.10
42095;DHT22;27753;55.724;37.612;2023-05-17T07:14:44;35.70;42.00
42095;DHT22;27753;55.724;37.612;2023-05-17T07:19:38;36.00;55.80
42095;DHT22;27753;55.724;37.612;2023-05-17T07:22:04;36.70;28.70
42095;DHT22;27753;55.724;37.612;2023-05-17T07:26:56;37.30;28.30
42095;DHT22;27753;55.724;37.612;2023-05-17T07:29:22;38.70;29.20
42095;DHT22;27753;55.724;37.612;2023-05-17T07:31:47;38.30;27.90
42095;DHT22;27753;55.724;37.612;2023-05-17T07:34:13;37.60;27.80
42095;DHT22;27753;55.724;37.612;2023-05-17T07:36:39;37.50;28.20
42095;DHT22;27753;55.724;37.612;2023-05-17T07:39:05;38.80;27.70
42095;DHT22;27753;55.724;37.612;2023-05-17T07:41:31;38.90;27.20
42095;DHT22;27753;55.724;37.612;2023-05-17T07:43:58;38.70;27.30
42095;DHT22;27753;55.724;37.612;2023-05-17T07:46:24;38.80;27.30
42095;DHT22;27753;55.724;37.612;2023-05-17T07:48:50;39.50;27.10
42095;DHT22;27753;55.724;37.612;2023-05-17T07:51:16;38.30;27.40
42095;DHT22;27753;55.724;37.612;2023-05-17T07:53:42;37.30;27.50
42095;DHT22;27753;55.724;37.612;2023-05-17T07:56:08;35.90;28.10
42095;DHT22;27753;55.724;37.612;2023-05-17T07:58:33;34.90;28.90
42095;DHT22;27753;55.724;37.612;2023-05-17T08:01:00;35.60;29.00
42095;DHT22;27753;55.724;37.612;2023-05-17T08:03:26;36.30;28.40
42095;DHT22;27753;55.724;37.612;2023-05-17T08:05:53;37.60;28.30
42095;DHT22;27753;55.724;37.612;2023-05-17T08:08:18;38.80;28.00
42095;DHT22;27753;55.724;37.612;2023-05-17T08:10:45;38.80;27.30
42095;DHT22;27753;55.724;37.612;2023-05-17T08:13:11;36.50;27.60
42095;DHT22;27753;55.724;37.612;2023-05-17T08:15:37;34.20;29.10
42095;DHT22;27753;55.724;37.612;2023-05-17T08:18:03;34.50;29.10
42095;DHT22;27753;55.724;37.612;2023-05-17T08:20:29;34.30;28.90
42095;DHT22;27753;55.724;37.612;2023-05-17T08:22:55;35.20;29.30
42095;DHT22;27753;55.724;37.612;2023-05-17T08:25:20;37.40;28.40
42095;DHT22;27753;55.724;37.612;2023-05-17T08:27:46;39.40;27.50
42095;DHT22;27753;55.724;37.612;2023-05-17T08:30:12;40.20;26.70
42095;DHT22;27753;55.724;37.612;2023-05-17T08:32:38;40.10;26.40
42095;DHT22;27753;55.724;37.612;2023-05-17T08:35:04;38.40;27.10
42095;DHT22;27753;55.724;37.612;2023-05-17T08:37:30;38.60;26.90
42095;DHT22;27753;55.724;37.612;2023-05-17T08:39:56;37.10;27.40
42095;DHT22;27753;55.724;37.612;2023-05-17T08:42:22;36.40;27.60
42095;DHT22;27753;55.724;37.612;2023-05-17T08:44:52;35.10;28.10
42095;DHT22;27753;55.724;37.612;2023-05-17T08:47:20;34.40;28.80
42095;DHT22;27753;55.724;37.612;2023-05-17T08:49:55;35.30;28.90
42095;DHT22;27753;55.724;37.612;2023-05-17T08:52:31;37.50;28.20
42095;DHT22;27753;55.724;37.612;2023-05-17T08:54:58;38.90;27.10
42095;DHT22;27753;55.724;37.612;2023-05-17T08:57:30;39.90;26.80
42095;DHT22;27753;55.724;37.612;2023-05-17T08:59:58;39.90;26.70
42095;DHT22;27753;55.724;37.612;2023-05-17T09:02:31;39.50;26.20
42095;DHT22;27753;55.724;37.612;2023-05-17T09:04:57;39.40;26.40
42095;DHT22;27753;55.724;37.612;2023-05-17T09:07:24;38.10;26.70
42095;DHT22;27753;55.724;37.612;2023-05-17T09:09:53;38.30;27.10
42095;DHT22;27753;55.724;37.612;2023-05-17T09:12:20;39.30;26.80
42095;DHT22;27753;55.724;37.612;2023-05-17T09:14:46;37.90;26.90
42095;DHT22;27753;55.724;37.612;2023-05-17T09:17:17;37.50;27.20
42095;DHT22;27753;55.724;37.612;2023-05-17T09:19:44;38.50;27.50
42095;DHT22;27753;55.724;37.612;2023-05-17T09:22:17;39.60;27.00
42095;DHT22;27753;55.724;37.612;2023-05-17T09:24:44;37.90;26.60
42095;DHT22;27753;55.724;37.612;2023-05-17T09:27:15;37.00;27.90
42095;DHT22;27753;55.724;37.612;2023-05-17T09:29:43;37.90;27.40
42095;DHT22;27753;55.724;37.612;2023-05-17T09:34:40;37.20;27.90
42095;DHT22;27753;55.724;37.612;2023-05-17T09:37:14;38.10;27.30
42095;DHT22;27753;55.724;37.612;2023-05-17T09:39:42;38.40;27.10
42095;DHT22;27753;55.724;37.612;2023-05-17T09:42:10;38.40;27.10
42095;DHT22;27753;55.724;37.612;2023-05-17T09:44:55;37.90;27.60
42095;DHT22;27753;55.724;37.612;2023-05-17T09:47:27;39.30;26.80
42095;DHT22;27753;55.724;37.612;2023-05-17T09:52:26;40.80;26.00
42095;DHT22;27753;55.724;37.612;2023-05-17T09:57:36;40.80;25.90
42095;DHT22;27753;55.724;37.612;2023-05-17T10:00:02;41.00;26.30
42095;DHT22;27753;55.724;37.612;2023-05-17T10:02:33;40.20;26.30
42095;DHT22;27753;55.724;37.612;2023-05-17T10:05:03;39.30;26.50
42095;DHT22;27753;55.724;37.612;2023-05-17T10:07:30;39.40;26.60
42095;DHT22;27753;55.724;37.612;2023-05-17T10:09:57;38.70;26.80
42095;DHT22;27753;55.724;37.612;2023-05-17T10:12:24;39.40;27.20
42095;DHT22;27753;55.724;37.612;2023-05-17T10:14:54;40.10;26.80
42095;DHT22;27753;55.724;37.612;2023-05-17T10:17:26;39.70;26.20
42095;DHT22;27753;55.724;37.612;2023-05-17T10:19:54;37.50;26.70
42095;DHT22;27753;55.724;37.612;2023-05-17T10:22:21;36.00;28.00
42095;DHT22;27753;55.724;37.612;2023-05-17T10:24:48;36.00;27.90
42095;DHT22;27753;55.724;37.612;2023-05-17T10:27:15;34.60;28.00
42095;DHT22;27753;55.724;37.612;2023-05-17T10:29:43;32.80;29.30
42095;DHT22;27753;55.724;37.612;2023-05-17T10:32:09;31.20;30.40
42095;DHT22;27753;55.724;37.612;2023-05-17T10:34:38;30.10;31.80
42095;DHT22;27753;55.724;37.612;2023-05-17T10:37:04;29.40;32.90
42095;DHT22;27753;55.724;37.612;2023-05-17T10:42:00;28.10;34.00
42095;DHT22;27753;55.724;37.612;2023-05-17T10:44:31;27.70;34.40
42095;DHT22;27753;55.724;37.612;2023-05-17T10:46:58;27.30;35.00
42095;DHT22;27753;55.724;37.612;2023-05-17T10:49:32;26.90;35.50
42095;DHT22;27753;55.724;37.612;2023-05-17T10:52:09;26.50;35.80
42095;DHT22;27753;55.724;37.612;2023-05-17T10:54:39;26.10;36.10
42095;DHT22;27753;55.724;37.612;2023-05-17T10:57:06;25.90;36.90
42095;DHT22;27753;55.724;37.612;2023-05-17T10:59:33;25.80;36.60
42095;DHT22;27753;55.724;37.612;2023-05-17T11:02:10;25.80;36.70
42095;DHT22;27753;55.724;37.612;2023-05-17T11:04:41;25.90;37.00
42095;DHT22;27753;55.724;37.612;2023-05-17T11:10:10;25.80;36.90
42095;DHT22;27753;55.724;37.612;2023-05-17T11:12:43;25.80;37.50
42095;DHT22;27753;55.724;37.612;2023-05-17T11:15:16;25.70;37.40
42095;DHT22;27753;55.724;37.612;2023-05-17T11:25:33;25.20;38.70
42095;DHT22;27753;55.724;37.612;2023-05-17T11:28:06;25.00;38.20
42095;DHT22;27753;55.724;37.612;2023-05-17T11:30:33;24.90;38.80
42095;DHT22;27753;55.724;37.612;2023-05-17T11:33:04;24.90;39.40
42095;DHT22;27753;55.724;37.612;2023-05-17T11:35:38;25.00;38.40
42095;DHT22;27753;55.724;37.612;2023-05-17T11:38:18;24.90;38.30
42095;DHT22;27753;55.724;37.612;2023-05-17T11:40:51;24.50;38.80
42095;DHT22;27753;55.724;37.612;2023-05-17T11:43:24;24.20;39.60
42095;DHT22;27753;55.724;37.612;2023-05-17T11:45:53;24.20;39.50
42095;DHT22;27753;55.724;37.612;2023-05-17T11:48:22;24.30;39.60
42095;DHT22;27753;55.724;37.612;2023-05-17T11:50:50;24.40;39.10
42095;DHT22;27753;55.724;37.612;2023-05-17T11:53:16;24.20;39.50
42095;DHT22;27753;55.724;37.612;2023-05-17T11:55:44;24.20;39.90
42095;DHT22;27753;55.724;37.612;2023-05-17T11:58:14;24.40;39.30
42095;DHT22;27753;55.724;37.612;2023-05-17T12:00:41;24.30;39.80
42095;DHT22;27753;55.724;37.612;2023-05-17T12:03:26;24.20;39.90
42095;DHT22;27753;55.724;37.612;2023-05-17T12:06:15;24.30;39.20
42095;DHT22;27753;55.724;37.612;2023-05-17T12:08:45;24.20;39.20
42095;DHT22;27753;55.724;37.612;2023-05-17T12:11:15;24.30;39.30
42095;DHT22;27753;55.724;37.612;2023-05-17T12:13:44;24.30;39.70
42095;DHT22;27753;55.724;37.612;2023-05-17T12:16:14;24.40;39.90
42095;DHT22;27753;55.724;37.612;2023-05-17T12:18:47;24.50;39.30
42095;DHT22;27753;55.724;37.612;2023-05-17T12:21:15;24.50;39.40
42095;DHT22;27753;55.724;37.612;2023-05-17T12:23:44;24.50;39.20
42095;DHT22;27753;55.724;37.612;2023-05-17T12:26:20;24.50;39.60
42095;DHT22;27753;55.724;37.612;2023-05-17T12:28:57;24.50;39.20
42095;DHT22;27753;55.724;37.612;2023-05-17T12:31:30;24.30;39.10
42095;DHT22;27753;55.724;37.612;2023-05-17T12:33:57;24.30;39.50
42095;DHT22;27753;55.724;37.612;2023-05-17T12:36:24;24.30;39.20
42095;DHT22;27753;55.724;37.612;2023-05-17T12:38:52;24.30;39.00
42095;DHT22;27753;55.724;37.612;2023-05-17T12:41:19;24.30;39.40
42095;DHT22;27753;55.724;37.612;2023-05-17T12:43:48;24.30;39.00
42095;DHT22;27753;55.724;37.612;2023-05-17T12:46:16;24.30;39.10
42095;DHT22;27753;55.724;37.612;2023-05-17T12:48:46;24.30;38.70
42095;DHT22;27753;55.724;37.612;2023-05-17T12:51:22;24.30;38.30
42095;DHT22;27753;55.724;37.612;2023-05-17T12:53:57;24.40;38.70
42095;DHT22;27753;55.724;37.612;2023-05-17T12:56:29;24.40;39.00
42095;DHT22;27753;55.724;37.612;2023-05-17T13:01:47;24.50;39.10
42095;DHT22;27753;55.724;37.612;2023-05-17T13:04:14;24.40;39.40
42095;DHT22;27753;55.724;37.612;2023-05-17T13:06:50;24.40;39.50
42095;DHT22;27753;55.724;37.612;2023-05-17T13:09:18;24.50;39.80
42095;DHT22;27753;55.724;37.612;2023-05-17T13:11:56;24.40;39.20
42095;DHT22;27753;55.724;37.612;2023-05-17T13:17:03;24.10;39.20
42095;DHT22;27753;55.724;37.612;2023-05-17T13:19:29;24.10;39.20
42095;DHT22;27753;55.724;37.612;2023-05-17T13:21:55;24.20;38.60
42095;DHT22;27753;55.724;37.612;2023-05-17T13:24:21;24.30;38.80
42095;DHT22;27753;55.724;37.612;2023-05-17T13:26:47;24.40;38.80
42095;DHT22;27753;55.724;37.612;2023-05-17T13:29:13;24.40;38.20
42095;DHT22;27753;55.724;37.612;2023-05-17T13:31:38;24.40;37.50
42095;DHT22;27753;55.724;37.612;2023-05-17T13:34:07;24.30;37.80
42095;DHT22;27753;55.724;37.612;2023-05-17T13:36:33;24.30;37.90
42095;DHT22;27753;55.724;37.612;2023-05-17T13:38:58;24.50;37.90
42095;DHT22;27753;55.724;37.612;2023-05-17T13:41:26;25.60;36.90
42095;DHT22;27753;55.724;37.612;2023-05-17T13:43:52;26.80;35.90
42095;DHT22;27753;55.724;37.612;2023-05-17T13:46:18;27.90;34.90
42095;DHT22;27753;55.724;37.612;2023-05-17T13:48:44;28.90;34.10
42095;DHT22;27753;55.724;37.612;2023-05-17T13:51:10;29.80;33.40
42095;DHT22;27753;55.724;37.612;2023-05-17T13:53:36;30.60;32.70
42095;DHT22;27753;55.724;37.612;2023-05-17T13:56:03;31.00;32.10
42095;DHT22;27753;55.724;37.612;2023-05-17T13:58:29;31.30;31.70
42095;DHT22;27753;55.724;37.612;2023-05-17T14:00:55;31.20;31.80
42095;DHT22;27753;55.724;37.612;2023-05-17T14:03:21;31.10;32.00
42095;DHT22;27753;55.724;37.612;2023-05-17T14:05:47;30.70;31.90
42095;DHT22;27753;55.724;37.612;2023-05-17T14:08:18;30.80;32.30
42095;DHT22;27753;55.724;37.612;2023-05-17T14:10:44;30.80;32.10
42095;DHT22;27753;55.724;37.612;2023-05-17T14:13:10;30.50;31.80
42095;DHT22;27753;55.724;37.612;2023-05-17T14:15:39;30.30;31.90
42095;DHT22;27753;55.724;37.612;2023-05-17T14:18:06;29.60;32.30
42095;DHT22;27753;55.724;37.612;2023-05-17T14:20:32;29.30;32.60
42095;DHT22;27753;55.724;37.612;2023-05-17T14:22:59;29.70;32.40
42095;DHT22;27753;55.724;37.612;2023-05-17T14:25:25;29.70;32.50
42095;DHT22;27753;55.724;37.612;2023-05-17T14:27:51;29.50;32.00
42095;DHT22;27753;55.724;37.612;2023-05-17T14:30:18;28.90;32.70
42095;DHT22;27753;55.724;37.612;2023-05-17T14:32:44;28.60;33.00
42095;DHT22;27753;55.724;37.612;2023-05-17T14:35:10;28.20;33.90
42095;DHT22;27753;55.724;37.612;2023-05-17T14:37:36;28.40;33.60
42095;DHT22;27753;55.724;37.612;2023-05-17T14:40:03;28.70;34.20
42095;DHT22;27753;55.724;37.612;2023-05-17T14:42:29;29.00;33.10
42095;DHT22;27753;55.724;37.612;2023-05-17T14:44:56;29.20;33.00
42095;DHT22;27753;55.724;37.612;2023-05-17T14:47:22;29.00;32.80
42095;DHT22;27753;55.724;37.612;2023-05-17T14:49:48;28.70;33.80
42095;DHT22;27753;55.724;37.612;2023-05-17T14:52:14;28.50;33.60
42095;DHT22;27753;55.724;37.612;2023-05-17T14:54:40;28.40;33.70
42095;DHT22;27753;55.724;37.612;2023-05-17T14:57:06;28.50;33.90
42095;DHT22;27753;55.724;37.612;2023-05-17T14:59:36;28.60;34.50
42095;DHT22;27753;55.724;37.612;2023-05-17T15:02:03;28.50;33.80
42095;DHT22;27753;55.724;37.612;2023-05-17T15:04:29;28.30;33.50
42095;DHT22;27753;55.724;37.612;2023-05-17T15:06:56;27.70;33.70
42095;DHT22;27753;55.724;37.612;2023-05-17T15:09:22;27.00;34.50
42095;DHT22;27753;55.724;37.612;2023-05-17T15:11:48;26.40;35.20
42095;DHT22;27753;55.724;37.612;2023-05-17T15:14:16;25.90;35.90
42095;DHT22;27753;55.724;37.612;2023-05-17T15:16:51;25.60;36.20
42095;DHT22;27753;55.724;37.612;2023-05-17T15:19:17;25.50;36.40
42095;DHT22;27753;55.724;37.612;2023-05-17T15:21:44;25.30;36.10
42095;DHT22;27753;55.724;37.612;2023-05-17T15:24:10;25.00;36.70
42095;DHT22;27753;55.724;37.612;2023-05-17T15:26:37;24.70;36.80
42095;DHT22;27753;55.724;37.612;2023-05-17T15:29:03;24.50;37.10
42095;DHT22;27753;55.724;37.612;2023-05-17T15:31:28;24.30;37.40
42095;DHT22;27753;55.724;37.612;2023-05-17T15:33:55;24.10;37.90
42095;DHT22;27753;55.724;37.612;2023-05-17T15:36:22;24.00;37.90
42095;DHT22;27753;55.724;37.612;2023-05-17T15:38:48;23.90;38.30
42095;DHT22;27753;55.724;37.612;2023-05-17T15:41:15;23.80;38.40
42095;DHT22;27753;55.724;37.612;2023-05-17T15:43:42;23.70;38.60
42095;DHT22;27753;55.724;37.612;2023-05-17T15:46:08;23.70;38.90
42095;DHT22;27753;55.724;37.612;2023-05-17T15:48:34;23.60;39.00
42095;DHT22;27753;55.724;37.612;2023-05-17T15:51:01;23.50;39.20